sensor_id;sensor_type;location;lat;lon;timestamp;pressure;altitude;pressure_sealevel;temperature;humidity
48527;BME280;34317;51.660;5.824;2023-12-20T00:02:20;101519.78;;;10.84;67.45
48527;BME280;34317;51.660;5.824;2023-12-20T00:04:47;101524.31;;;10.80;67.23
48527;BME280;34317;51.660;5.824;2023-12-20T00:07:15;101528.88;;;10.77;67.12
48527;BME280;34317;51.660;5.824;2023-12-20T00:09:42;101527.25;;;10.73;67.23
48527;BME280;34317;51.660;5.824;2023-12-20T00:12:10;101523.88;;;10.67;66.86
48527;BME280;34317;51.660;5.824;2023-12-20T00:14:37;101522.25;;;10.63;67.08
48527;BME280;34317;51.660;5.824;2023-12-20T00:17:04;101528.63;;;10.58;66.81
48527;BME280;34317;51.660;5.824;2023-12-20T00:19:31;101535.81;;;10.54;66.91
48527;BME280;34317;51.660;5.824;2023-12-20T00:21:59;101532.44;;;10.49;66.89
48527;BME280;34317;51.660;5.824;2023-12-20T00:24:26;101533.47;;;10.45;66.87
48527;BME280;34317;51.660;5.824;2023-12-20T00:26:54;101537.16;;;10.41;66.67
48527;BME280;34317;51.660;5.824;2023-12-20T00:29:21;101535.56;;;10.35;66.62
48527;BME280;34317;51.660;5.824;2023-12-20T00:31:48;101534.78;;;10.31;66.79
48527;BME280;34317;51.660;5.824;2023-12-20T00:34:15;101533.13;;;10.27;66.77
48527;BME280;34317;51.660;5.824;2023-12-20T00:36:42;101529.69;;;10.25;66.66
48527;BME280;34317;51.660;5.824;2023-12-20T00:39:10;101528.88;;;10.23;66.84
48527;BME280;34317;51.660;5.824;2023-12-20T00:41:37;101528.06;;;10.21;66.87
48527;BME280;34317;51.660;5.824;2023-12-20T00:44:04;101509.63;;;10.18;66.95
48527;BME280;34317;51.660;5.824;2023-12-20T00:46:31;101514.06;;;10.18;66.84
48527;BME280;34317;51.660;5.824;2023-12-20T00:48:58;101516.75;;;10.16;66.83
48527;BME280;34317;51.660;5.824;2023-12-20T00:51:26;101513.28;;;10.14;66.95
48527;BME280;34317;51.660;5.824;2023-12-20T00:53:53;101514.25;;;10.11;66.71
48527;BME280;34317;51.660;5.824;2023-12-20T00:56:22;101512.59;;;10.07;66.78
48527;BME280;34317;51.660;5.824;2023-12-20T00:58:49;101514.44;;;10.05;66.73
48527;BME280;34317;51.660;5.824;2023-12-20T01:01:16;101507.47;;;10.03;66.65
48527;BME280;34317;51.660;5.824;2023-12-20T01:03:44;101511.94;;;10.01;66.68
48527;BME280;34317;51.660;5.824;2023-12-20T01:06:11;101515.63;;;9.97;66.73
48527;BME280;34317;51.660;5.824;2023-12-20T01:08:38;101510.41;;;9.93;66.74
48527;BME280;34317;51.660;5.824;2023-12-20T01:11:06;101516.66;;;9.91;66.60
48527;BME280;34317;51.660;5.824;2023-12-20T01:13:33;101520.25;;;9.88;66.63
48527;BME280;34317;51.660;5.824;2023-12-20T01:16:00;101537.06;;;9.87;66.68
48527;BME280;34317;51.660;5.824;2023-12-20T01:18:28;101531.84;;;9.84;66.70
48527;BME280;34317;51.660;5.824;2023-12-20T01:20:55;101531.94;;;9.81;66.52
48527;BME280;34317;51.660;5.824;2023-12-20T01:23:22;101532.06;;;9.78;66.54
48527;BME280;34317;51.660;5.824;2023-12-20T01:25:49;101527.69;;;9.75;66.63
48527;BME280;34317;51.660;5.824;2023-12-20T01:28:16;101535.72;;;9.74;66.54
48527;BME280;34317;51.660;5.824;2023-12-20T01:30:44;101532.25;;;9.72;66.56
48527;BME280;34317;51.660;5.824;2023-12-20T01:33:11;101532.25;;;9.72;66.72
48527;BME280;34317;51.660;5.824;2023-12-20T01:35:38;101536.66;;;9.71;66.43
48527;BME280;34317;51.660;5.824;2023-12-20T01:38:05;101539.34;;;9.70;66.64
48527;BME280;34317;51.660;5.824;2023-12-20T01:40:33;101536.69;;;9.70;66.84
48527;BME280;34317;51.660;5.824;2023-12-20T01:43:07;101537.63;;;9.69;66.74
48527;BME280;34317;51.660;5.824;2023-12-20T01:45:35;101533.19;;;9.69;66.50
48527;BME280;34317;51.660;5.824;2023-12-20T01:48:04;101535.88;;;9.68;66.75
48527;BME280;34317;51.660;5.824;2023-12-20T01:50:32;101523.56;;;9.67;66.61
48527;BME280;34317;51.660;5.824;2023-12-20T01:53:00;101523.56;;;9.67;66.55
48527;BME280;34317;51.660;5.824;2023-12-20T01:55:30;101516.53;;;9.66;66.76
48527;BME280;34317;51.660;5.824;2023-12-20T01:57:59;101522.81;;;9.63;66.59
48527;BME280;34317;51.660;5.824;2023-12-20T02:00:27;101529.91;;;9.61;66.63
48527;BME280;34317;51.660;5.824;2023-12-20T02:02:56;101527.31;;;9.60;66.49
48527;BME280;34317;51.660;5.824;2023-12-20T02:05:30;101527.34;;;9.58;66.54
48527;BME280;34317;51.660;5.824;2023-12-20T02:07:57;101520.38;;;9.55;66.66
48527;BME280;34317;51.660;5.824;2023-12-20T02:10:25;101516.94;;;9.53;66.62
48527;BME280;34317;51.660;5.824;2023-12-20T02:12:52;101518.75;;;9.51;66.51
48527;BME280;34317;51.660;5.824;2023-12-20T02:15:20;101520.59;;;9.49;66.53
48527;BME280;34317;51.660;5.824;2023-12-20T02:17:47;101525.94;;;9.46;66.57
48527;BME280;34317;51.660;5.824;2023-12-20T02:20:15;101522.47;;;9.44;66.48
48527;BME280;34317;51.660;5.824;2023-12-20T02:22:42;101526.03;;;9.43;66.64
48527;BME280;34317;51.660;5.824;2023-12-20T02:25:10;101538.44;;;9.41;66.53
48527;BME280;34317;51.660;5.824;2023-12-20T02:27:38;101524.38;;;9.39;66.72
48527;BME280;34317;51.660;5.824;2023-12-20T02:30:06;101519.19;;;9.36;66.43
48527;BME280;34317;51.660;5.824;2023-12-20T02:32:33;101523.59;;;9.35;66.41
48527;BME280;34317;51.660;5.824;2023-12-20T02:35:01;101528.13;;;9.32;66.31
48527;BME280;34317;51.660;5.824;2023-12-20T02:37:28;101532.59;;;9.30;66.56
48527;BME280;34317;51.660;5.824;2023-12-20T02:39:55;101534.41;;;9.28;66.42
48527;BME280;34317;51.660;5.824;2023-12-20T02:42:22;101526.56;;;9.25;66.61
48527;BME280;34317;51.660;5.824;2023-12-20T02:44:49;101530.97;;;9.24;66.52
48527;BME280;34317;51.660;5.824;2023-12-20T02:47:16;101526.66;;;9.22;66.63
48527;BME280;34317;51.660;5.824;2023-12-20T02:49:44;101523.19;;;9.20;66.51
48527;BME280;34317;51.660;5.824;2023-12-20T02:52:11;101531.16;;;9.18;66.45
48527;BME280;34317;51.660;5.824;2023-12-20T02:54:38;101532.13;;;9.15;66.61
48527;BME280;34317;51.660;5.824;2023-12-20T02:57:06;101526.84;;;9.15;66.37
48527;BME280;34317;51.660;5.824;2023-12-20T02:59:33;101523.34;;;9.13;66.74
48527;BME280;34317;51.660;5.824;2023-12-20T03:02:00;101516.34;;;9.12;66.47
48527;BME280;34317;51.660;5.824;2023-12-20T03:04:27;101521.63;;;9.12;66.58
48527;BME280;34317;51.660;5.824;2023-12-20T03:06:55;101518.16;;;9.10;66.46
48527;BME280;34317;51.660;5.824;2023-12-20T03:09:22;101523.44;;;9.10;66.75
48527;BME280;34317;51.660;5.824;2023-12-20T03:11:49;101515.56;;;9.09;66.59
48527;BME280;34317;51.660;5.824;2023-12-20T03:14:16;101514.72;;;9.08;66.70
48527;BME280;34317;51.660;5.824;2023-12-20T03:16:49;101511.13;;;9.09;66.53
48527;BME280;34317;51.660;5.824;2023-12-20T03:19:17;101509.41;;;9.08;66.62
48527;BME280;34317;51.660;5.824;2023-12-20T03:21:44;101505.97;;;9.06;66.90
48527;BME280;34317;51.660;5.824;2023-12-20T03:24:11;101494.50;;;9.06;66.55
48527;BME280;34317;51.660;5.824;2023-12-20T03:26:38;101495.38;;;9.06;66.80
48527;BME280;34317;51.660;5.824;2023-12-20T03:29:05;101497.22;;;9.04;66.68
48527;BME280;34317;51.660;5.824;2023-12-20T03:31:33;101500.75;;;9.03;66.47
48527;BME280;34317;51.660;5.824;2023-12-20T03:34:00;101497.28;;;9.01;66.77
48527;BME280;34317;51.660;5.824;2023-12-20T03:36:27;101500.81;;;9.00;66.75
48527;BME280;34317;51.660;5.824;2023-12-20T03:38:54;101489.41;;;9.00;66.64
48527;BME280;34317;51.660;5.824;2023-12-20T03:41:21;101500.00;;;8.98;66.86
48527;BME280;34317;51.660;5.824;2023-12-20T03:43:48;101492.06;;;8.98;66.94
48527;BME280;34317;51.660;5.824;2023-12-20T03:46:15;101502.63;;;8.98;66.88
48527;BME280;34317;51.660;5.824;2023-12-20T03:48:43;101489.47;;;8.96;66.73
48527;BME280;34317;51.660;5.824;2023-12-20T03:51:10;101485.97;;;8.96;67.00
48527;BME280;34317;51.660;5.824;2023-12-20T03:53:37;101487.75;;;8.95;66.78
48527;BME280;34317;51.660;5.824;2023-12-20T03:56:06;101480.72;;;8.94;66.63
48527;BME280;34317;51.660;5.824;2023-12-20T03:58:33;101479.88;;;8.94;66.67
48527;BME280;34317;51.660;5.824;2023-12-20T04:01:00;101478.19;;;8.91;66.47
48527;BME280;34317;51.660;5.824;2023-12-20T04:03:28;101484.31;;;8.92;66.72
48527;BME280;34317;51.660;5.824;2023-12-20T04:05:55;101483.50;;;8.90;66.73
48527;BME280;34317;51.660;5.824;2023-12-20T04:08:22;101480.88;;;8.90;66.64
48527;BME280;34317;51.660;5.824;2023-12-20T04:10:49;101486.97;;;8.92;66.87
48527;BME280;34317;51.660;5.824;2023-12-20T04:13:16;101495.72;;;8.94;66.88
48527;BME280;34317;51.660;5.824;2023-12-20T04:15:43;101498.34;;;8.94;66.84
48527;BME280;34317;51.660;5.824;2023-12-20T04:18:11;101497.34;;;8.98;67.07
48527;BME280;34317;51.660;5.824;2023-12-20T04:20:38;101497.31;;;9.00;67.20
48527;BME280;34317;51.660;5.824;2023-12-20T04:23:05;101504.28;;;9.02;67.02
48527;BME280;34317;51.660;5.824;2023-12-20T04:25:32;101494.50;;;9.06;67.08
48527;BME280;34317;51.660;5.824;2023-12-20T04:27:59;101495.28;;;9.09;67.26
48527;BME280;34317;51.660;5.824;2023-12-20T04:30:26;101495.19;;;9.12;67.06
48527;BME280;34317;51.660;5.824;2023-12-20T04:32:54;101496.00;;;9.16;67.19
48527;BME280;34317;51.660;5.824;2023-12-20T04:35:21;101500.31;;;9.19;67.09
48527;BME280;34317;51.660;5.824;2023-12-20T04:37:48;101500.22;;;9.22;67.21
48527;BME280;34317;51.660;5.824;2023-12-20T04:40:16;101500.13;;;9.25;67.12
48527;BME280;34317;51.660;5.824;2023-12-20T04:42:43;101493.91;;;9.27;67.25
48527;BME280;34317;51.660;5.824;2023-12-20T04:45:11;101494.69;;;9.31;67.22
48527;BME280;34317;51.660;5.824;2023-12-20T04:47:41;101492.84;;;9.33;67.22
48527;BME280;34317;51.660;5.824;2023-12-20T04:50:09;101485.75;;;9.35;67.22
48527;BME280;34317;51.660;5.824;2023-12-20T04:52:37;101487.38;;;9.39;67.38
48527;BME280;34317;51.660;5.824;2023-12-20T04:55:04;101487.31;;;9.42;67.11
48527;BME280;34317;51.660;5.824;2023-12-20T04:57:32;101492.47;;;9.45;67.40
48527;BME280;34317;51.660;5.824;2023-12-20T04:59:59;101485.34;;;9.47;67.30
48527;BME280;34317;51.660;5.824;2023-12-20T05:02:26;101488.84;;;9.49;67.05
48527;BME280;34317;51.660;5.824;2023-12-20T05:04:53;101487.91;;;9.50;67.19
48527;BME280;34317;51.660;5.824;2023-12-20T05:07:22;101486.13;;;9.51;66.97
48527;BME280;34317;51.660;5.824;2023-12-20T05:09:49;101485.19;;;9.53;67.15
48527;BME280;34317;51.660;5.824;2023-12-20T05:12:16;101485.19;;;9.53;67.16
48527;BME280;34317;51.660;5.824;2023-12-20T05:14:44;101479.78;;;9.57;66.95
48527;BME280;34317;51.660;5.824;2023-12-20T05:17:11;101483.31;;;9.57;66.76
48527;BME280;34317;51.660;5.824;2023-12-20T05:19:38;101472.69;;;9.59;66.88
48527;BME280;34317;51.660;5.824;2023-12-20T05:22:05;101479.72;;;9.60;67.08
48527;BME280;34317;51.660;5.824;2023-12-20T05:24:32;101470.88;;;9.61;67.13
48527;BME280;34317;51.660;5.824;2023-12-20T05:26:59;101472.59;;;9.62;67.06
48527;BME280;34317;51.660;5.824;2023-12-20T05:29:27;101472.50;;;9.65;66.88
48527;BME280;34317;51.660;5.824;2023-12-20T05:31:54;101474.22;;;9.66;67.12
48527;BME280;34317;51.660;5.824;2023-12-20T05:34:21;101469.75;;;9.68;67.04
48527;BME280;34317;51.660;5.824;2023-12-20T05:36:48;101465.28;;;9.70;67.09
48527;BME280;34317;51.660;5.824;2023-12-20T05:39:15;101466.16;;;9.70;67.09
48527;BME280;34317;51.660;5.824;2023-12-20T05:41:43;101464.34;;;9.72;67.11
48527;BME280;34317;51.660;5.824;2023-12-20T05:44:10;101470.41;;;9.76;67.09
48527;BME280;34317;51.660;5.824;2023-12-20T05:46:37;101466.81;;;9.77;67.06
48527;BME280;34317;51.660;5.824;2023-12-20T05:49:04;101465.88;;;9.80;67.06
48527;BME280;34317;51.660;5.824;2023-12-20T05:51:31;101464.91;;;9.82;67.15
48527;BME280;34317;51.660;5.824;2023-12-20T05:53:59;101465.72;;;9.84;66.94
48527;BME280;34317;51.660;5.824;2023-12-20T05:56:26;101472.75;;;9.85;67.02
48527;BME280;34317;51.660;5.824;2023-12-20T05:58:54;101473.56;;;9.87;67.07
48527;BME280;34317;51.660;5.824;2023-12-20T06:01:21;101484.03;;;9.90;66.88
48527;BME280;34317;51.660;5.824;2023-12-20T06:03:48;101480.47;;;9.91;66.87
48527;BME280;34317;51.660;5.824;2023-12-20T06:06:16;101484.81;;;9.94;67.05
48527;BME280;34317;51.660;5.824;2023-12-20T06:08:44;101491.78;;;9.97;67.11
48527;BME280;34317;51.660;5.824;2023-12-20T06:11:11;101490.88;;;9.98;66.91
48527;BME280;34317;51.660;5.824;2023-12-20T06:13:40;101494.31;;;10.00;66.73
48527;BME280;34317;51.660;5.824;2023-12-20T06:16:07;101490.78;;;10.01;66.70
48527;BME280;34317;51.660;5.824;2023-12-20T06:18:35;101488.94;;;10.03;66.67
48527;BME280;34317;51.660;5.824;2023-12-20T06:21:04;101492.41;;;10.05;66.71
48527;BME280;34317;51.660;5.824;2023-12-20T06:23:31;101484.47;;;10.05;66.71
48527;BME280;34317;51.660;5.824;2023-12-20T06:25:58;101488.84;;;10.06;66.90
48527;BME280;34317;51.660;5.824;2023-12-20T06:28:26;101488.84;;;10.06;66.60
48527;BME280;34317;51.660;5.824;2023-12-20T06:30:53;101488.84;;;10.06;66.70
48527;BME280;34317;51.660;5.824;2023-12-20T06:33:21;101483.44;;;10.09;66.54
48527;BME280;34317;51.660;5.824;2023-12-20T06:35:49;101484.28;;;10.09;66.77
48527;BME280;34317;51.660;5.824;2023-12-20T06:38:18;101485.19;;;10.10;66.56
48527;BME280;34317;51.660;5.824;2023-12-20T06:40:45;101485.19;;;10.10;66.22
48527;BME280;34317;51.660;5.824;2023-12-20T06:43:13;101464.91;;;10.09;66.51
48527;BME280;34317;51.660;5.824;2023-12-20T06:45:58;101480.78;;;10.09;66.42
48527;BME280;34317;51.660;5.824;2023-12-20T06:48:27;101483.44;;;10.09;66.45
48527;BME280;34317;51.660;5.824;2023-12-20T06:50:54;101479.09;;;10.08;66.24
48527;BME280;34317;51.660;5.824;2023-12-20T06:53:21;101488.72;;;10.09;66.34
48527;BME280;34317;51.660;5.824;2023-12-20T06:55:49;101487.03;;;10.08;66.25
48527;BME280;34317;51.660;5.824;2023-12-20T06:58:18;101480.84;;;10.07;66.20
48527;BME280;34317;51.660;5.824;2023-12-20T07:00:45;101479.97;;;10.07;66.22
48527;BME280;34317;51.660;5.824;2023-12-20T07:03:12;101478.28;;;10.06;66.36
48527;BME280;34317;51.660;5.824;2023-12-20T07:05:40;101480.03;;;10.05;65.96
48527;BME280;34317;51.660;5.824;2023-12-20T07:08:07;101479.22;;;10.03;66.27
48527;BME280;34317;51.660;5.824;2023-12-20T07:10:34;101478.34;;;10.03;66.11
48527;BME280;34317;51.660;5.824;2023-12-20T07:13:02;101471.31;;;10.02;66.19
48527;BME280;34317;51.660;5.824;2023-12-20T07:15:29;101467.00;;;9.99;66.16
48527;BME280;34317;51.660;5.824;2023-12-20T07:17:56;101475.00;;;9.98;66.09
48527;BME280;34317;51.660;5.824;2023-12-20T07:20:23;101476.81;;;9.96;66.18
48527;BME280;34317;51.660;5.824;2023-12-20T07:22:51;101471.53;;;9.96;65.90
48527;BME280;34317;51.660;5.824;2023-12-20T07:25:18;101469.81;;;9.94;66.28
48527;BME280;34317;51.660;5.824;2023-12-20T07:27:47;101474.22;;;9.94;66.14
48527;BME280;34317;51.660;5.824;2023-12-20T07:30:15;101475.09;;;9.94;66.22
48527;BME280;34317;51.660;5.824;2023-12-20T07:32:42;101475.19;;;9.91;66.24
48527;BME280;34317;51.660;5.824;2023-12-20T07:35:09;101477.78;;;9.93;66.07
48527;BME280;34317;51.660;5.824;2023-12-20T07:37:36;101476.97;;;9.91;66.23
48527;BME280;34317;51.660;5.824;2023-12-20T07:40:04;101477.84;;;9.91;66.16
48527;BME280;34317;51.660;5.824;2023-12-20T07:42:32;101477.03;;;9.89;66.24
48527;BME280;34317;51.660;5.824;2023-12-20T07:44:59;101477.03;;;9.89;66.13
48527;BME280;34317;51.660;5.824;2023-12-20T07:47:26;101477.13;;;9.86;66.11
48527;BME280;34317;51.660;5.824;2023-12-20T07:49:54;101477.13;;;9.86;66.43
48527;BME280;34317;51.660;5.824;2023-12-20T07:52:23;101469.16;;;9.86;66.20
48527;BME280;34317;51.660;5.824;2023-12-20T07:54:50;101470.09;;;9.85;66.16
48527;BME280;34317;51.660;5.824;2023-12-20T07:57:17;101470.09;;;9.85;66.20
48527;BME280;34317;51.660;5.824;2023-12-20T07:59:44;101470.09;;;9.85;66.32
48527;BME280;34317;51.660;5.824;2023-12-20T08:02:12;101470.09;;;9.85;65.73
48527;BME280;34317;51.660;5.824;2023-12-20T08:04:39;101472.75;;;9.85;66.12
48527;BME280;34317;51.660;5.824;2023-12-20T08:07:08;101468.34;;;9.84;66.06
48527;BME280;34317;51.660;5.824;2023-12-20T08:09:35;101477.22;;;9.83;66.28
48527;BME280;34317;51.660;5.824;2023-12-20T08:12:03;101485.16;;;9.83;66.29
48527;BME280;34317;51.660;5.824;2023-12-20T08:14:31;101486.06;;;9.82;66.26
48527;BME280;34317;51.660;5.824;2023-12-20T08:16:58;101482.53;;;9.83;66.26
48527;BME280;34317;51.660;5.824;2023-12-20T08:19:25;101495.75;;;9.83;66.31
48527;BME280;34317;51.660;5.824;2023-12-20T08:21:53;101494.81;;;9.84;66.24
48527;BME280;34317;51.660;5.824;2023-12-20T08:24:20;101498.31;;;9.85;66.29
48527;BME280;34317;51.660;5.824;2023-12-20T08:26:47;101492.97;;;9.86;66.30
48527;BME280;34317;51.660;5.824;2023-12-20T08:29:14;101498.28;;;9.86;66.43
48527;BME280;34317;51.660;5.824;2023-12-20T08:31:41;101502.63;;;9.89;66.19
48527;BME280;34317;51.660;5.824;2023-12-20T08:34:09;101503.47;;;9.89;66.31
48527;BME280;34317;51.660;5.824;2023-12-20T08:36:38;101501.66;;;9.91;66.25
48527;BME280;34317;51.660;5.824;2023-12-20T08:39:06;101498.06;;;9.92;66.23
48527;BME280;34317;51.660;5.824;2023-12-20T08:41:35;101492.78;;;9.92;66.36
48527;BME280;34317;51.660;5.824;2023-12-20T08:44:02;101491.84;;;9.95;66.28
48527;BME280;34317;51.660;5.824;2023-12-20T08:46:30;101498.84;;;9.96;66.05
48527;BME280;34317;51.660;5.824;2023-12-20T08:48:57;101487.31;;;9.99;66.08
48527;BME280;34317;51.660;5.824;2023-12-20T08:51:25;101485.47;;;10.01;66.18
48527;BME280;34317;51.660;5.824;2023-12-20T08:53:53;101479.25;;;10.02;66.27
48527;BME280;34317;51.660;5.824;2023-12-20T08:56:20;101466.91;;;10.02;66.26
48527;BME280;34317;51.660;5.824;2023-12-20T08:58:47;101472.97;;;10.06;66.36
48527;BME280;34317;51.660;5.824;2023-12-20T09:01:14;101456.97;;;10.09;66.29
48527;BME280;34317;51.660;5.824;2023-12-20T09:03:42;101461.38;;;10.10;66.19
48527;BME280;34317;51.660;5.824;2023-12-20T09:06:10;101457.75;;;10.12;66.30
48527;BME280;34317;51.660;5.824;2023-12-20T09:08:38;101444.47;;;10.14;66.01
48527;BME280;34317;51.660;5.824;2023-12-20T09:11:06;101465.53;;;10.17;66.38
48527;BME280;34317;51.660;5.824;2023-12-20T09:13:34;101458.41;;;10.19;66.21
48527;BME280;34317;51.660;5.824;2023-12-20T09:16:02;101461.88;;;10.21;66.37
48527;BME280;34317;51.660;5.824;2023-12-20T09:18:30;101460.91;;;10.24;66.21
48527;BME280;34317;51.660;5.824;2023-12-20T09:20:57;101462.63;;;10.25;66.12
48527;BME280;34317;51.660;5.824;2023-12-20T09:23:24;101464.34;;;10.26;66.27
48527;BME280;34317;51.660;5.824;2023-12-20T09:25:51;101473.09;;;10.28;65.94
48527;BME280;34317;51.660;5.824;2023-12-20T09:28:23;101465.97;;;10.30;66.12
48527;BME280;34317;51.660;5.824;2023-12-20T09:30:50;101470.34;;;10.32;66.22
48527;BME280;34317;51.660;5.824;2023-12-20T09:33:18;101464.06;;;10.35;66.01
48527;BME280;34317;51.660;5.824;2023-12-20T09:35:45;101461.38;;;10.37;65.97
48527;BME280;34317;51.660;5.824;2023-12-20T09:38:12;101461.28;;;10.40;66.22
48527;BME280;34317;51.660;5.824;2023-12-20T09:40:41;101456.81;;;10.42;65.92
48527;BME280;34317;51.660;5.824;2023-12-20T09:43:11;101447.03;;;10.44;66.04
48527;BME280;34317;51.660;5.824;2023-12-20T09:45:46;101461.06;;;10.46;66.13
48527;BME280;34317;51.660;5.824;2023-12-20T09:48:18;101462.78;;;10.47;66.20
48527;BME280;34317;51.660;5.824;2023-12-20T09:50:46;101464.53;;;10.48;66.02
48527;BME280;34317;51.660;5.824;2023-12-20T09:53:20;101469.78;;;10.49;66.01
48527;BME280;34317;51.660;5.824;2023-12-20T09:55:51;101475.03;;;10.51;66.07
48527;BME280;34317;51.660;5.824;2023-12-20T09:58:18;101460.84;;;10.52;65.84
48527;BME280;34317;51.660;5.824;2023-12-20T10:00:46;101474.91;;;10.54;66.12
48527;BME280;34317;51.660;5.824;2023-12-20T10:03:14;101473.06;;;10.56;65.73
48527;BME280;34317;51.660;5.824;2023-12-20T10:05:43;101467.75;;;10.56;65.88
48527;BME280;34317;51.660;5.824;2023-12-20T10:08:10;101469.50;;;10.57;65.90
48527;BME280;34317;51.660;5.824;2023-12-20T10:10:37;101465.06;;;10.58;65.86
48527;BME280;34317;51.660;5.824;2023-12-20T10:13:14;101465.91;;;10.58;65.75
48527;BME280;34317;51.660;5.824;2023-12-20T10:15:42;101465.88;;;10.60;65.75
48527;BME280;34317;51.660;5.824;2023-12-20T10:18:12;101468.53;;;10.60;66.01
48527;BME280;34317;51.660;5.824;2023-12-20T10:20:40;101457.94;;;10.60;65.70
48527;BME280;34317;51.660;5.824;2023-12-20T10:23:08;101455.22;;;10.61;65.89
48527;BME280;34317;51.660;5.824;2023-12-20T10:25:35;101462.25;;;10.62;65.95
48527;BME280;34317;51.660;5.824;2023-12-20T10:28:14;101465.72;;;10.64;65.92
48527;BME280;34317;51.660;5.824;2023-12-20T10:30:44;101463.88;;;10.66;65.79
48527;BME280;34317;51.660;5.824;2023-12-20T10:33:12;101463.88;;;10.66;65.64
48527;BME280;34317;51.660;5.824;2023-12-20T10:35:39;101462.03;;;10.68;65.84
48527;BME280;34317;51.660;5.824;2023-12-20T10:38:12;101460.19;;;10.70;65.66
48527;BME280;34317;51.660;5.824;2023-12-20T10:40:41;101461.91;;;10.71;65.75
48527;BME280;34317;51.660;5.824;2023-12-20T10:43:10;101456.53;;;10.75;65.93
48527;BME280;34317;51.660;5.824;2023-12-20T10:45:38;101449.38;;;10.77;65.80
48527;BME280;34317;51.660;5.824;2023-12-20T10:48:05;101448.47;;;10.78;65.79
48527;BME280;34317;51.660;5.824;2023-12-20T10:50:36;101447.53;;;10.79;65.83
48527;BME280;34317;51.660;5.824;2023-12-20T10:53:06;101443.84;;;10.83;65.85
48527;BME280;34317;51.660;5.824;2023-12-20T10:55:33;101440.28;;;10.84;65.69
48527;BME280;34317;51.660;5.824;2023-12-20T10:58:04;101442.00;;;10.85;65.59
48527;BME280;34317;51.660;5.824;2023-12-20T11:00:38;101445.50;;;10.87;65.60
48527;BME280;34317;51.660;5.824;2023-12-20T11:03:08;101432.16;;;10.88;65.67
48527;BME280;34317;51.660;5.824;2023-12-20T11:05:44;101436.50;;;10.91;65.79
48527;BME280;34317;51.660;5.824;2023-12-20T11:08:28;101424.06;;;10.93;65.53
48527;BME280;34317;51.660;5.824;2023-12-20T11:11:04;101421.34;;;10.95;65.68
48527;BME280;34317;51.660;5.824;2023-12-20T11:13:44;101415.06;;;10.97;65.67
48527;BME280;34317;51.660;5.824;2023-12-20T11:16:15;101414.16;;;10.98;65.75
48527;BME280;34317;51.660;5.824;2023-12-20T11:18:44;101409.66;;;11.00;65.76
48527;BME280;34317;51.660;5.824;2023-12-20T11:21:12;101409.53;;;11.03;65.67
48527;BME280;34317;51.660;5.824;2023-12-20T11:23:42;101411.22;;;11.06;65.77
48527;BME280;34317;51.660;5.824;2023-12-20T11:26:09;101411.03;;;11.10;65.61
48527;BME280;34317;51.660;5.824;2023-12-20T11:28:36;101414.47;;;11.13;65.69
48527;BME280;34317;51.660;5.824;2023-12-20T11:31:03;101419.69;;;11.16;65.71
48527;BME280;34317;51.660;5.824;2023-12-20T11:33:37;101408.94;;;11.19;65.77
48527;BME280;34317;51.660;5.824;2023-12-20T11:36:13;101400.94;;;11.20;65.45
48527;BME280;34317;51.660;5.824;2023-12-20T11:38:57;101398.22;;;11.22;65.43
48527;BME280;34317;51.660;5.824;2023-12-20T11:41:26;101409.56;;;11.25;65.64
48527;BME280;34317;51.660;5.824;2023-12-20T11:43:54;101401.50;;;11.28;65.38
48527;BME280;34317;51.660;5.824;2023-12-20T11:46:22;101406.72;;;11.30;65.59
48527;BME280;34317;51.660;5.824;2023-12-20T11:48:50;101406.72;;;11.30;65.65
48527;BME280;34317;51.660;5.824;2023-12-20T11:51:17;101401.44;;;11.30;65.39
48527;BME280;34317;51.660;5.824;2023-12-20T11:53:44;101396.13;;;11.30;65.30
48527;BME280;34317;51.660;5.824;2023-12-20T11:56:12;101386.44;;;11.29;65.38
48527;BME280;34317;51.660;5.824;2023-12-20T11:58:39;101385.50;;;11.30;65.39
48527;BME280;34317;51.660;5.824;2023-12-20T12:01:06;101384.59;;;11.31;65.37
48527;BME280;34317;51.660;5.824;2023-12-20T12:03:37;101381.94;;;11.31;65.24
48527;BME280;34317;51.660;5.824;2023-12-20T12:06:04;101382.84;;;11.30;65.35
48527;BME280;34317;51.660;5.824;2023-12-20T12:08:32;101384.66;;;11.29;65.37
48527;BME280;34317;51.660;5.824;2023-12-20T12:10:59;101380.22;;;11.30;65.31
48527;BME280;34317;51.660;5.824;2023-12-20T12:13:27;101378.44;;;11.30;65.44
48527;BME280;34317;51.660;5.824;2023-12-20T12:15:55;101373.94;;;11.33;65.38
48527;BME280;34317;51.660;5.824;2023-12-20T12:18:22;101375.66;;;11.34;65.18
48527;BME280;34317;51.660;5.824;2023-12-20T12:20:50;101366.84;;;11.33;65.40
48527;BME280;34317;51.660;5.824;2023-12-20T12:23:23;101354.44;;;11.34;65.19
48527;BME280;34317;51.660;5.824;2023-12-20T12:25:51;101357.03;;;11.35;65.39
48527;BME280;34317;51.660;5.824;2023-12-20T12:28:18;101361.47;;;11.35;65.27
48527;BME280;34317;51.660;5.824;2023-12-20T12:30:58;101360.63;;;11.34;65.42
48527;BME280;34317;51.660;5.824;2023-12-20T12:33:26;101355.31;;;11.34;65.69
48527;BME280;34317;51.660;5.824;2023-12-20T12:35:54;101355.31;;;11.34;65.55
48527;BME280;34317;51.660;5.824;2023-12-20T12:38:22;101350.03;;;11.34;65.59
48527;BME280;34317;51.660;5.824;2023-12-20T12:40:50;101355.31;;;11.34;65.41
48527;BME280;34317;51.660;5.824;2023-12-20T12:43:20;101355.31;;;11.34;65.55
48527;BME280;34317;51.660;5.824;2023-12-20T12:45:49;101363.13;;;11.37;65.46
48527;BME280;34317;51.660;5.824;2023-12-20T12:48:17;101355.19;;;11.37;65.62
48527;BME280;34317;51.660;5.824;2023-12-20T12:50:47;101341.91;;;11.37;65.42
48527;BME280;34317;51.660;5.824;2023-12-20T12:53:15;101329.53;;;11.38;65.59
48527;BME280;34317;51.660;5.824;2023-12-20T12:55:42;101335.72;;;11.38;65.34
48527;BME280;34317;51.660;5.824;2023-12-20T12:58:09;101328.66;;;11.37;65.47
48527;BME280;34317;51.660;5.824;2023-12-20T13:00:36;101322.50;;;11.37;65.37